Share

Ebeye, MH

Wake Island Army Air Field (PWAK) Elev 13 ft | 19.28 °N, 166.64 °E | Change Station

Current weather conditions updated 29 minutes ago

Clear
Clear
82 °F
Feels Like 86 °F
N
13
Wind Variable Wind from SE
Gusts 16 mph
Sunrise 6:26 AM
Sunset 6:44 PM
Moon Waning Gibbous

Today is forecast to be Cooler than yesterday. Afternoon showers and thunderstorms.

Pressure 30.01 in
Visibility 10.0 miles
Clouds Clear
Heat Index 86 °F
Dew Point 70 °F
Humidity 66%
Rainfall 0.00 in
Snow Depth Not available.
UV 3 out of 16
Pollen Not available.
Air Quality Not available.
Flu Activity
METAR PWAK 182055Z 13011G14KT 10SM CLR 28/21 A3001 RMK AO2A

More Conditions Fewer Conditions

Pressure 30.01 in
Visibility 10.0 miles
Clouds Clear
Heat Index 86 °F
Dew Point 70 °F
Humidity 66%
Rainfall 0.00 in
Snow Depth Not available.
UV 3 out of 16
Pollen Not available.
Air Quality Not available.
Flu Activity
METAR PWAK 182055Z 13011G14KT 10SM CLR 28/21 A3001 RMK AO2A

More Conditions Fewer Conditions

10-Day Weather Forecast

Almanac

Astronomy

Apr. 19, 2014 Rise Set
Actual Time 6:26 AM MHT 6:44 PM MHT
Civil Twilight 6:04 AM MHT 7:05 PM MHT
Nautical Twilight 5:40 AM MHT 7:30 PM MHT
Astronomical Twilight 5:15 AM MHT 7:54 PM MHT
Moon 10:18 PM MHT (4/19) 9:28 AM MHT (4/19)
Length of Visible Light 13h 00m
Length of Day
12h 17m
Tomorrow will be 0m 22s longer.
Waning Gibbous, 85% of the Moon is Illuminated
Apr 18
Waning Gibbous
Apr 22
Last Quarter
Apr 29
New
May 6
First Quarter
May 14
Full

Community

  • What's for Lunch?
    What's for Lunch?
  • SUNRISE THROUGH THE TREES.
    SUNRISE THROUGH THE TREES.
  • Dog Wood Blossoms
    Dog Wood Blossoms
  • Morning Light
    Morning Light
  • New Day
    New Day

WunderPhotos

Upload Photos

1,702,511 photos uploaded!

WunderBlogs® & News

Nearby

Snow Depth

Station Depth Elevation
No new snow has been reported.

Coastal Water Temperatures

Place Temperature
No Stations Reporting

Earthquake Activity

City Distance Mag. Time & Date
No recent earthquake activity has been reported nearby.
Minimum magnitude displayed is 2.5.

Nearby Weather Stations

There are no personal weather stations in this area.

What do you think?

We're not finished. Please let us know what you like, what you don't like, and what you are still missing.